sensor_id;sensor_type;location;lat;lon;timestamp;pressure;altitude;pressure_sealevel;temperature;humidity
77333;BME280;66408;51.326;12.070;2023-04-24T00:01:01;99435.50;;;13.56;70.91
77333;BME280;66408;51.326;12.070;2023-04-24T00:03:28;99434.84;;;13.47;71.33
77333;BME280;66408;51.326;12.070;2023-04-24T00:05:55;99435.53;;;13.44;71.64
77333;BME280;66408;51.326;12.070;2023-04-24T00:08:22;99433.59;;;13.33;72.17
77333;BME280;66408;51.326;12.070;2023-04-24T00:10:50;99431.91;;;13.28;72.34
77333;BME280;66408;51.326;12.070;2023-04-24T00:13:16;99424.97;;;13.18;72.79
77333;BME280;66408;51.326;12.070;2023-04-24T00:15:42;99428.03;;;13.17;72.78
77333;BME280;66408;51.326;12.070;2023-04-24T00:18:09;99427.44;;;13.11;72.95
77333;BME280;66408;51.326;12.070;2023-04-24T00:20:36;99429.38;;;13.11;73.15
77333;BME280;66408;51.326;12.070;2023-04-24T00:23:02;99424.84;;;13.03;72.99
77333;BME280;66408;51.326;12.070;2023-04-24T00:25:29;99429.75;;;13.09;72.97
77333;BME280;66408;51.326;12.070;2023-04-24T00:27:55;99431.34;;;12.98;73.62
77333;BME280;66408;51.326;12.070;2023-04-24T00:30:22;99420.84;;;12.88;73.89
77333;BME280;66408;51.326;12.070;2023-04-24T00:32:48;99418.03;;;12.97;73.50
77333;BME280;66408;51.326;12.070;2023-04-24T00:35:15;99425.19;;;12.77;73.84
77333;BME280;66408;51.326;12.070;2023-04-24T00:37:41;99428.03;;;12.92;73.52
77333;BME280;66408;51.326;12.070;2023-04-24T00:40:08;99432.09;;;12.86;73.40
77333;BME280;66408;51.326;12.070;2023-04-24T00:42:35;99435.28;;;12.76;73.65
77333;BME280;66408;51.326;12.070;2023-04-24T00:45:02;99434.03;;;12.86;73.36
77333;BME280;66408;51.326;12.070;2023-04-24T00:47:29;99439.06;;;12.84;73.28
77333;BME280;66408;51.326;12.070;2023-04-24T00:49:56;99430.88;;;12.84;73.34
77333;BME280;66408;51.326;12.070;2023-04-24T00:52:22;99437.22;;;12.88;73.12
77333;BME280;66408;51.326;12.070;2023-04-24T00:54:50;99440.66;;;12.85;72.88
77333;BME280;66408;51.326;12.070;2023-04-24T00:57:18;99443.81;;;12.75;73.39
77333;BME280;66408;51.326;12.070;2023-04-24T00:59:45;99441.66;;;12.80;73.24
77333;BME280;66408;51.326;12.070;2023-04-24T01:02:12;99442.94;;;12.83;72.84
77333;BME280;66408;51.326;12.070;2023-04-24T01:04:39;99441.66;;;12.80;72.93
77333;BME280;66408;51.326;12.070;2023-04-24T01:07:06;99442.47;;;12.81;72.76
77333;BME280;66408;51.326;12.070;2023-04-24T01:09:45;99444.59;;;12.75;72.81
77333;BME280;66408;51.326;12.070;2023-04-24T01:12:15;99442.78;;;12.67;73.35
77333;BME280;66408;51.326;12.070;2023-04-24T01:14:42;99441.66;;;12.68;72.77
77333;BME280;66408;51.326;12.070;2023-04-24T01:17:08;99433.69;;;12.75;72.37
77333;BME280;66408;51.326;12.070;2023-04-24T01:19:35;99440.06;;;12.79;72.27
77333;BME280;66408;51.326;12.070;2023-04-24T01:22:02;99452.25;;;12.82;72.29
77333;BME280;66408;51.326;12.070;2023-04-24T01:24:29;99443.94;;;12.78;72.42
77333;BME280;66408;51.326;12.070;2023-04-24T01:26:56;99436.19;;;12.68;72.64
77333;BME280;66408;51.326;12.070;2023-04-24T01:29:23;99440.19;;;12.71;72.44
77333;BME280;66408;51.326;12.070;2023-04-24T01:31:50;99437.47;;;12.71;72.44
77333;BME280;66408;51.326;12.070;2023-04-24T01:34:17;99430.06;;;12.71;72.17
77333;BME280;66408;51.326;12.070;2023-04-24T01:36:45;99434.16;;;12.89;71.76
77333;BME280;66408;51.326;12.070;2023-04-24T01:39:13;99432.81;;;12.83;71.76
77333;BME280;66408;51.326;12.070;2023-04-24T01:41:39;99435.53;;;12.71;71.97
77333;BME280;66408;51.326;12.070;2023-04-24T01:44:06;99426.31;;;12.76;71.92
77333;BME280;66408;51.326;12.070;2023-04-24T01:46:33;99430.28;;;12.78;71.72
77333;BME280;66408;51.326;12.070;2023-04-24T01:49:01;99439.50;;;12.74;71.95
77333;BME280;66408;51.326;12.070;2023-04-24T01:51:27;99444.38;;;12.68;72.04
77333;BME280;66408;51.326;12.070;2023-04-24T01:53:54;99428.81;;;12.81;71.38
77333;BME280;66408;51.326;12.070;2023-04-24T01:56:21;99431.53;;;12.69;71.23
77333;BME280;66408;51.326;12.070;2023-04-24T01:58:52;99435.28;;;12.64;71.39
77333;BME280;66408;51.326;12.070;2023-04-24T02:01:19;99432.88;;;12.50;71.72
77333;BME280;66408;51.326;12.070;2023-04-24T02:03:46;99421.88;;;12.47;72.06
77333;BME280;66408;51.326;12.070;2023-04-24T02:06:13;99422.09;;;12.54;71.53
77333;BME280;66408;51.326;12.070;2023-04-24T02:08:39;99434.06;;;12.29;72.67
77333;BME280;66408;51.326;12.070;2023-04-24T02:11:06;99433.41;;;12.32;73.08
77333;BME280;66408;51.326;12.070;2023-04-24T02:13:32;99435.38;;;12.43;72.42
77333;BME280;66408;51.326;12.070;2023-04-24T02:15:59;99433.53;;;12.35;72.67
77333;BME280;66408;51.326;12.070;2023-04-24T02:18:25;99432.63;;;12.43;72.24
77333;BME280;66408;51.326;12.070;2023-04-24T02:20:52;99435.91;;;12.37;72.42
77333;BME280;66408;51.326;12.070;2023-04-24T02:23:18;99422.41;;;12.40;72.10
77333;BME280;66408;51.326;12.070;2023-04-24T02:25:45;99417.28;;;12.39;71.91
77333;BME280;66408;51.326;12.070;2023-04-24T02:28:11;99417.72;;;12.29;72.78
77333;BME280;66408;51.326;12.070;2023-04-24T02:30:38;99418.53;;;12.29;72.23
77333;BME280;66408;51.326;12.070;2023-04-24T02:33:04;99421.13;;;12.38;72.21
77333;BME280;66408;51.326;12.070;2023-04-24T02:35:31;99421.03;;;12.34;72.19
77333;BME280;66408;51.326;12.070;2023-04-24T02:37:57;99414.53;;;12.27;72.08
77333;BME280;66408;51.326;12.070;2023-04-24T02:40:24;99418.78;;;12.36;71.75
77333;BME280;66408;51.326;12.070;2023-04-24T02:42:50;99412.88;;;12.34;71.33
77333;BME280;66408;51.326;12.070;2023-04-24T02:45:17;99412.88;;;12.34;71.46
77333;BME280;66408;51.326;12.070;2023-04-24T02:47:43;99412.63;;;12.39;70.97
77333;BME280;66408;51.326;12.070;2023-04-24T02:50:10;99407.44;;;12.46;70.71
77333;BME280;66408;51.326;12.070;2023-04-24T02:52:36;99410.16;;;12.46;70.75
77333;BME280;66408;51.326;12.070;2023-04-24T02:55:03;99416.63;;;12.42;70.81
77333;BME280;66408;51.326;12.070;2023-04-24T02:57:29;99412.19;;;12.49;70.41
77333;BME280;66408;51.326;12.070;2023-04-24T02:59:56;99414.00;;;12.45;70.51
77333;BME280;66408;51.326;12.070;2023-04-24T03:02:22;99409.22;;;12.42;70.78
77333;BME280;66408;51.326;12.070;2023-04-24T03:04:49;99414.69;;;12.42;70.17
77333;BME280;66408;51.326;12.070;2023-04-24T03:07:15;99416.28;;;12.43;70.17
77333;BME280;66408;51.326;12.070;2023-04-24T03:09:42;99420.59;;;12.44;70.23
77333;BME280;66408;51.326;12.070;2023-04-24T03:12:09;99416.06;;;12.48;69.42
77333;BME280;66408;51.326;12.070;2023-04-24T03:14:35;99412.09;;;12.46;69.47
77333;BME280;66408;51.326;12.070;2023-04-24T03:17:02;99416.16;;;12.52;69.48
77333;BME280;66408;51.326;12.070;2023-04-24T03:19:28;99418.91;;;12.52;69.60
77333;BME280;66408;51.326;12.070;2023-04-24T03:21:54;99410.63;;;12.48;69.19
77333;BME280;66408;51.326;12.070;2023-04-24T03:24:21;99414.13;;;12.49;69.16
77333;BME280;66408;51.326;12.070;2023-04-24T03:26:48;99405.84;;;12.45;69.36
77333;BME280;66408;51.326;12.070;2023-04-24T03:29:15;99412.19;;;12.49;68.93
77333;BME280;66408;51.326;12.070;2023-04-24T03:31:41;99398.53;;;12.37;69.35
77333;BME280;66408;51.326;12.070;2023-04-24T03:34:08;99398.91;;;12.36;69.48
77333;BME280;66408;51.326;12.070;2023-04-24T03:36:34;99400.38;;;12.33;69.70
77333;BME280;66408;51.326;12.070;2023-04-24T03:39:01;99398.28;;;12.18;70.49
77333;BME280;66408;51.326;12.070;2023-04-24T03:41:27;99394.63;;;12.14;70.49
77333;BME280;66408;51.326;12.070;2023-04-24T03:43:56;99389.72;;;11.95;71.43
77333;BME280;66408;51.326;12.070;2023-04-24T03:46:22;99391.72;;;11.86;71.77
77333;BME280;66408;51.326;12.070;2023-04-24T03:48:49;99393.75;;;11.89;71.76
77333;BME280;66408;51.326;12.070;2023-04-24T03:51:15;99389.34;;;11.84;71.87
77333;BME280;66408;51.326;12.070;2023-04-24T03:53:42;99385.00;;;11.83;72.02
77333;BME280;66408;51.326;12.070;2023-04-24T03:56:08;99392.72;;;11.81;72.12
77333;BME280;66408;51.326;12.070;2023-04-24T03:58:35;99393.19;;;11.83;72.23
77333;BME280;66408;51.326;12.070;2023-04-24T04:01:01;99386.47;;;11.81;71.80
77333;BME280;66408;51.326;12.070;2023-04-24T04:03:28;99391.03;;;11.68;72.63
77333;BME280;66408;51.326;12.070;2023-04-24T04:05:56;99387.28;;;11.61;73.09
77333;BME280;66408;51.326;12.070;2023-04-24T04:08:22;99400.53;;;11.62;73.17
77333;BME280;66408;51.326;12.070;2023-04-24T04:10:49;99397.22;;;11.57;72.77
77333;BME280;66408;51.326;12.070;2023-04-24T04:13:15;99390.00;;;11.61;73.10
77333;BME280;66408;51.326;12.070;2023-04-24T04:15:41;99395.88;;;11.63;72.80
77333;BME280;66408;51.326;12.070;2023-04-24T04:18:08;99378.63;;;11.59;72.92
77333;BME280;66408;51.326;12.070;2023-04-24T04:20:34;99386.34;;;11.57;73.04
77333;BME280;66408;51.326;12.070;2023-04-24T04:23:01;99391.91;;;11.60;73.00
77333;BME280;66408;51.326;12.070;2023-04-24T04:25:27;99392.34;;;11.62;72.80
77333;BME280;66408;51.326;12.070;2023-04-24T04:27:55;99395.69;;;11.68;72.31
77333;BME280;66408;51.326;12.070;2023-04-24T04:30:21;99404.19;;;11.66;72.29
77333;BME280;66408;51.326;12.070;2023-04-24T04:32:48;99398.22;;;11.73;72.32
77333;BME280;66408;51.326;12.070;2023-04-24T04:35:14;99393.09;;;11.71;72.54
77333;BME280;66408;51.326;12.070;2023-04-24T04:37:43;99399.53;;;11.67;72.72
77333;BME280;66408;51.326;12.070;2023-04-24T04:40:09;99396.94;;;11.70;72.59
77333;BME280;66408;51.326;12.070;2023-04-24T04:42:38;99392.31;;;11.71;72.77
77333;BME280;66408;51.326;12.070;2023-04-24T04:45:09;99387.94;;;11.78;72.70
77333;BME280;66408;51.326;12.070;2023-04-24T04:47:35;99387.59;;;11.80;72.56
77333;BME280;66408;51.326;12.070;2023-04-24T04:50:02;99395.78;;;11.80;72.67
77333;BME280;66408;51.326;12.070;2023-04-24T04:52:30;99402.72;;;11.90;72.47
77333;BME280;66408;51.326;12.070;2023-04-24T04:54:56;99403.41;;;11.86;72.73
77333;BME280;66408;51.326;12.070;2023-04-24T04:57:23;99407.31;;;11.98;72.67
77333;BME280;66408;51.326;12.070;2023-04-24T04:59:49;99403.78;;;11.97;72.50
77333;BME280;66408;51.326;12.070;2023-04-24T05:02:15;99413.66;;;12.02;72.51
77333;BME280;66408;51.326;12.070;2023-04-24T05:04:42;99410.75;;;12.07;72.04
77333;BME280;66408;51.326;12.070;2023-04-24T05:07:09;99415.63;;;12.13;72.25
77333;BME280;66408;51.326;12.070;2023-04-24T05:09:35;99420.22;;;12.21;71.95
77333;BME280;66408;51.326;12.070;2023-04-24T05:12:02;99415.09;;;12.20;72.37
77333;BME280;66408;51.326;12.070;2023-04-24T05:14:28;99411.34;;;12.24;72.07
77333;BME280;66408;51.326;12.070;2023-04-24T05:16:55;99413.31;;;12.36;71.47
77333;BME280;66408;51.326;12.070;2023-04-24T05:19:22;99414.09;;;12.37;71.59
77333;BME280;66408;51.326;12.070;2023-04-24T05:21:48;99419.81;;;12.44;71.17
77333;BME280;66408;51.326;12.070;2023-04-24T05:24:14;99421.84;;;12.35;71.49
77333;BME280;66408;51.326;12.070;2023-04-24T05:26:41;99427.81;;;12.28;71.44
77333;BME280;66408;51.326;12.070;2023-04-24T05:29:07;99423.63;;;12.31;71.32
77333;BME280;66408;51.326;12.070;2023-04-24T05:31:34;99419.31;;;12.30;71.47
77333;BME280;66408;51.326;12.070;2023-04-24T05:34:01;99426.81;;;12.33;71.33
77333;BME280;66408;51.326;12.070;2023-04-24T05:36:27;99435.34;;;12.31;71.50
77333;BME280;66408;51.326;12.070;2023-04-24T05:38:54;99436.84;;;12.41;71.09
77333;BME280;66408;51.326;12.070;2023-04-24T05:41:20;99436.38;;;12.39;71.21
77333;BME280;66408;51.326;12.070;2023-04-24T05:43:47;99451.06;;;12.46;70.94
77333;BME280;66408;51.326;12.070;2023-04-24T05:46:13;99450.16;;;12.54;70.74
77333;BME280;66408;51.326;12.070;2023-04-24T05:48:40;99456.31;;;12.64;70.55
77333;BME280;66408;51.326;12.070;2023-04-24T05:51:06;99456.31;;;12.64;70.42
77333;BME280;66408;51.326;12.070;2023-04-24T05:53:33;99457.81;;;12.73;70.27
77333;BME280;66408;51.326;12.070;2023-04-24T05:55:59;99455.09;;;12.73;69.65
77333;BME280;66408;51.326;12.070;2023-04-24T05:58:26;99451.56;;;12.85;69.85
77333;BME280;66408;51.326;12.070;2023-04-24T06:01:00;99445.53;;;12.91;68.81
77333;BME280;66408;51.326;12.070;2023-04-24T06:03:28;99452.81;;;13.00;68.68
77333;BME280;66408;51.326;12.070;2023-04-24T06:05:55;99440.53;;;13.06;68.66
77333;BME280;66408;51.326;12.070;2023-04-24T06:08:21;99446.00;;;13.06;68.98
77333;BME280;66408;51.326;12.070;2023-04-24T06:10:48;99438.75;;;13.22;68.58
77333;BME280;66408;51.326;12.070;2023-04-24T06:13:15;99447.91;;;13.42;68.96
77333;BME280;66408;51.326;12.070;2023-04-24T06:15:43;99437.47;;;13.44;67.81
77333;BME280;66408;51.326;12.070;2023-04-24T06:18:10;99433.59;;;13.45;67.77
77333;BME280;66408;51.326;12.070;2023-04-24T06:20:36;99439.25;;;13.52;67.93
77333;BME280;66408;51.326;12.070;2023-04-24T06:23:03;99443.94;;;13.39;67.49
77333;BME280;66408;51.326;12.070;2023-04-24T06:25:29;99439.13;;;13.48;66.95
77333;BME280;66408;51.326;12.070;2023-04-24T06:27:57;99429.91;;;13.53;67.26
77333;BME280;66408;51.326;12.070;2023-04-24T06:30:23;99446.41;;;13.56;67.20
77333;BME280;66408;51.326;12.070;2023-04-24T06:32:50;99436.50;;;13.52;67.30
77333;BME280;66408;51.326;12.070;2023-04-24T06:35:21;99436.97;;;13.54;66.90
77333;BME280;66408;51.326;12.070;2023-04-24T06:37:47;99443.03;;;13.47;66.65
77333;BME280;66408;51.326;12.070;2023-04-24T06:40:14;99440.19;;;13.44;67.00
77333;BME280;66408;51.326;12.070;2023-04-24T06:42:40;99446.66;;;13.51;66.54
77333;BME280;66408;51.326;12.070;2023-04-24T06:45:07;99448.47;;;13.59;66.52
77333;BME280;66408;51.326;12.070;2023-04-24T06:47:33;99439.88;;;13.73;66.11
77333;BME280;66408;51.326;12.070;2023-04-24T06:50:00;99438.16;;;13.81;65.49
77333;BME280;66408;51.326;12.070;2023-04-24T06:52:27;99448.25;;;13.92;65.97
77333;BME280;66408;51.326;12.070;2023-04-24T06:55:00;99444.59;;;13.88;64.83
77333;BME280;66408;51.326;12.070;2023-04-24T06:57:27;99448.63;;;13.79;66.04
77333;BME280;66408;51.326;12.070;2023-04-24T06:59:53;99446.13;;;13.74;66.00
77333;BME280;66408;51.326;12.070;2023-04-24T07:02:20;99444.22;;;13.62;66.34
77333;BME280;66408;51.326;12.070;2023-04-24T07:04:46;99440.81;;;13.65;65.71
77333;BME280;66408;51.326;12.070;2023-04-24T07:07:14;99447.88;;;13.66;66.29
77333;BME280;66408;51.326;12.070;2023-04-24T07:09:40;99452.72;;;13.73;66.33
77333;BME280;66408;51.326;12.070;2023-04-24T07:12:11;99440.31;;;13.75;65.44
77333;BME280;66408;51.326;12.070;2023-04-24T07:14:39;99431.66;;;13.73;64.95
77333;BME280;66408;51.326;12.070;2023-04-24T07:17:06;99443.53;;;13.65;64.77
77333;BME280;66408;51.326;12.070;2023-04-24T07:19:33;99433.03;;;13.79;64.58
77333;BME280;66408;51.326;12.070;2023-04-24T07:22:00;99435.91;;;13.98;64.53
77333;BME280;66408;51.326;12.070;2023-04-24T07:24:27;99437.59;;;14.31;63.08
77333;BME280;66408;51.326;12.070;2023-04-24T07:26:55;99439.22;;;14.63;62.06
77333;BME280;66408;51.326;12.070;2023-04-24T07:29:23;99437.56;;;14.90;60.45
77333;BME280;66408;51.326;12.070;2023-04-24T07:31:49;99446.03;;;15.01;60.45
77333;BME280;66408;51.326;12.070;2023-04-24T07:34:16;99432.53;;;15.08;59.89
77333;BME280;66408;51.326;12.070;2023-04-24T07:36:42;99423.13;;;15.60;59.61
77333;BME280;66408;51.326;12.070;2023-04-24T07:39:09;99426.81;;;16.06;58.89
77333;BME280;66408;51.326;12.070;2023-04-24T07:41:35;99427.88;;;16.21;57.74
77333;BME280;66408;51.326;12.070;2023-04-24T07:44:02;99427.16;;;16.24;56.69
77333;BME280;66408;51.326;12.070;2023-04-24T07:46:29;99437.25;;;16.62;56.58
77333;BME280;66408;51.326;12.070;2023-04-24T07:48:56;99433.28;;;16.59;55.25
77333;BME280;66408;51.326;12.070;2023-04-24T07:51:39;99437.09;;;16.74;54.86
77333;BME280;66408;51.326;12.070;2023-04-24T07:54:06;99451.91;;;16.92;55.71
77333;BME280;66408;51.326;12.070;2023-04-24T07:56:33;99448.34;;;17.14;53.58
77333;BME280;66408;51.326;12.070;2023-04-24T07:59:00;99439.63;;;17.35;53.75
77333;BME280;66408;51.326;12.070;2023-04-24T08:01:27;99450.69;;;17.65;51.80
77333;BME280;66408;51.326;12.070;2023-04-24T08:03:54;99443.09;;;17.58;51.49
77333;BME280;66408;51.326;12.070;2023-04-24T08:06:22;99452.59;;;17.91;51.87
77333;BME280;66408;51.326;12.070;2023-04-24T08:08:48;99448.16;;;17.83;50.27
77333;BME280;66408;51.326;12.070;2023-04-24T08:11:15;99454.59;;;17.38;50.71
77333;BME280;66408;51.326;12.070;2023-04-24T08:13:41;99450.31;;;17.40;50.50
77333;BME280;66408;51.326;12.070;2023-04-24T08:16:08;99462.34;;;17.32;50.50
77333;BME280;66408;51.326;12.070;2023-04-24T08:18:34;99463.50;;;17.31;50.93
77333;BME280;66408;51.326;12.070;2023-04-24T08:21:02;99462.25;;;17.25;50.44
77333;BME280;66408;51.326;12.070;2023-04-24T08:23:29;99463.13;;;17.06;50.40
77333;BME280;66408;51.326;12.070;2023-04-24T08:25:56;99464.28;;;16.82;50.48
77333;BME280;66408;51.326;12.070;2023-04-24T08:28:23;99467.25;;;16.51;51.11
77333;BME280;66408;51.326;12.070;2023-04-24T08:30:50;99467.78;;;16.37;51.20
77333;BME280;66408;51.326;12.070;2023-04-24T08:33:24;99462.47;;;16.48;51.47
77333;BME280;66408;51.326;12.070;2023-04-24T08:35:51;99465.22;;;16.67;51.57
77333;BME280;66408;51.326;12.070;2023-04-24T08:38:18;99466.22;;;16.59;51.04
77333;BME280;66408;51.326;12.070;2023-04-24T08:40:45;99474.13;;;16.22;49.91
77333;BME280;66408;51.326;12.070;2023-04-24T08:43:14;99480.56;;;16.10;49.21
77333;BME280;66408;51.326;12.070;2023-04-24T08:45:41;99476.88;;;15.64;50.74
77333;BME280;66408;51.326;12.070;2023-04-24T08:48:09;99487.44;;;15.31;51.74
77333;BME280;66408;51.326;12.070;2023-04-24T08:50:52;99488.94;;;15.13;51.81
77333;BME280;66408;51.326;12.070;2023-04-24T08:53:19;99487.09;;;15.17;52.01
77333;BME280;66408;51.326;12.070;2023-04-24T08:55:47;99485.75;;;15.26;52.27
77333;BME280;66408;51.326;12.070;2023-04-24T08:58:16;99495.47;;;15.24;52.17
77333;BME280;66408;51.326;12.070;2023-04-24T09:00:42;99498.84;;;15.33;52.59
77333;BME280;66408;51.326;12.070;2023-04-24T09:03:14;99492.88;;;15.46;52.67
77333;BME280;66408;51.326;12.070;2023-04-24T09:05:43;99499.31;;;15.70;52.29
77333;BME280;66408;51.326;12.070;2023-04-24T09:08:17;99502.00;;;15.86;52.12
77333;BME280;66408;51.326;12.070;2023-04-24T09:10:44;99491.09;;;15.89;51.64
77333;BME280;66408;51.326;12.070;2023-04-24T09:13:11;99499.19;;;16.21;51.48
77333;BME280;66408;51.326;12.070;2023-04-24T09:15:39;99497.94;;;16.57;49.98
77333;BME280;66408;51.326;12.070;2023-04-24T09:18:06;99503.34;;;17.18;48.43
77333;BME280;66408;51.326;12.070;2023-04-24T09:20:33;99495.78;;;17.11;47.19
77333;BME280;66408;51.326;12.070;2023-04-24T09:23:02;99503.75;;;17.20;48.71
77333;BME280;66408;51.326;12.070;2023-04-24T09:25:33;99505.97;;;17.11;48.28
77333;BME280;66408;51.326;12.070;2023-04-24T09:28:02;99504.22;;;16.99;47.43
77333;BME280;66408;51.326;12.070;2023-04-24T09:30:29;99494.47;;;17.28;46.93
77333;BME280;66408;51.326;12.070;2023-04-24T09:33:13;99494.75;;;17.72;44.69
77333;BME280;66408;51.326;12.070;2023-04-24T09:35:41;99497.03;;;18.26;43.47
77333;BME280;66408;51.326;12.070;2023-04-24T09:38:09;99510.34;;;17.91;43.07
77333;BME280;66408;51.326;12.070;2023-04-24T09:40:36;99495.94;;;18.35;43.92
77333;BME280;66408;51.326;12.070;2023-04-24T09:43:10;99500.97;;;18.59;42.98
77333;BME280;66408;51.326;12.070;2023-04-24T09:45:38;99487.34;;;19.21;42.98
77333;BME280;66408;51.326;12.070;2023-04-24T09:48:09;99501.81;;;19.55;41.82
77333;BME280;66408;51.326;12.070;2023-04-24T09:50:36;99502.66;;;19.66;39.57
77333;BME280;66408;51.326;12.070;2023-04-24T09:53:05;99509.81;;;19.74;39.92
77333;BME280;66408;51.326;12.070;2023-04-24T09:55:39;99506.75;;;19.90;40.47
77333;BME280;66408;51.326;12.070;2023-04-24T09:58:07;99512.22;;;19.83;39.58
77333;BME280;66408;51.326;12.070;2023-04-24T10:00:34;99517.41;;;19.36;40.25
77333;BME280;66408;51.326;12.070;2023-04-24T10:03:05;99524.78;;;18.78;41.53
77333;BME280;66408;51.326;12.070;2023-04-24T10:05:36;99524.66;;;18.04;40.32
77333;BME280;66408;51.326;12.070;2023-04-24T10:08:05;99521.00;;;17.66;42.13
77333;BME280;66408;51.326;12.070;2023-04-24T10:10:32;99512.97;;;17.31;42.65
77333;BME280;66408;51.326;12.070;2023-04-24T10:12:59;99530.75;;;17.37;43.97
77333;BME280;66408;51.326;12.070;2023-04-24T10:15:26;99535.22;;;17.22;44.27
77333;BME280;66408;51.326;12.070;2023-04-24T10:17:53;99534.84;;;17.24;43.30
77333;BME280;66408;51.326;12.070;2023-04-24T10:20:21;99532.91;;;17.51;42.66
77333;BME280;66408;51.326;12.070;2023-04-24T10:22:50;99526.03;;;18.20;42.19
77333;BME280;66408;51.326;12.070;2023-04-24T10:25:22;99536.06;;;18.69;40.30
77333;BME280;66408;51.326;12.070;2023-04-24T10:27:50;99526.41;;;18.86;40.13
77333;BME280;66408;51.326;12.070;2023-04-24T10:30:17;99529.88;;;19.20;38.58
77333;BME280;66408;51.326;12.070;2023-04-24T10:32:45;99536.66;;;19.84;38.47
77333;BME280;66408;51.326;12.070;2023-04-24T10:35:13;99524.50;;;19.92;35.88
77333;BME280;66408;51.326;12.070;2023-04-24T10:37:45;99525.03;;;20.23;36.04
77333;BME280;66408;51.326;12.070;2023-04-24T10:40:17;99528.34;;;20.60;35.58
77333;BME280;66408;51.326;12.070;2023-04-24T10:42:47;99523.72;;;21.10;34.15
77333;BME280;66408;51.326;12.070;2023-04-24T10:45:18;99530.47;;;21.24;33.88
77333;BME280;66408;51.326;12.070;2023-04-24T10:47:56;99528.81;;;20.84;34.75
77333;BME280;66408;51.326;12.070;2023-04-24T10:50:25;99536.00;;;20.08;33.77
77333;BME280;66408;51.326;12.070;2023-04-24T10:52:52;99537.81;;;19.80;35.29
77333;BME280;66408;51.326;12.070;2023-04-24T10:55:42;99544.91;;;19.26;36.98
77333;BME280;66408;51.326;12.070;2023-04-24T10:58:10;99545.47;;;19.05;38.29
77333;BME280;66408;51.326;12.070;2023-04-24T11:00:41;99556.72;;;18.86;39.14
77333;BME280;66408;51.326;12.070;2023-04-24T11:03:23;99550.38;;;18.82;37.45
77333;BME280;66408;51.326;12.070;2023-04-24T11:06:03;99554.72;;;19.23;38.39
77333;BME280;66408;51.326;12.070;2023-04-24T11:08:43;99552.31;;;18.78;37.98
77333;BME280;66408;51.326;12.070;2023-04-24T11:11:12;99549.63;;;18.85;38.11
77333;BME280;66408;51.326;12.070;2023-04-24T11:19:09;99552.34;;;18.48;39.15
77333;BME280;66408;51.326;12.070;2023-04-24T11:21:48;99546.31;;;19.09;37.79
77333;BME280;66408;51.326;12.070;2023-04-24T11:24:40;99540.09;;;19.19;37.21
77333;BME280;66408;51.326;12.070;2023-04-24T11:27:12;99534.16;;;20.34;36.33
77333;BME280;66408;51.326;12.070;2023-04-24T11:29:48;99546.78;;;20.35;34.51
77333;BME280;66408;51.326;12.070;2023-04-24T11:32:29;99534.50;;;19.56;33.68
77333;BME280;66408;51.326;12.070;2023-04-24T11:34:57;99545.28;;;19.24;34.95
77333;BME280;66408;51.326;12.070;2023-04-24T11:37:26;99552.13;;;19.45;36.06
77333;BME280;66408;51.326;12.070;2023-04-24T11:39:55;99556.78;;;19.85;35.44
77333;BME280;66408;51.326;12.070;2023-04-24T11:42:22;99549.72;;;19.94;35.13
77333;BME280;66408;51.326;12.070;2023-04-24T11:44:54;99553.72;;;19.46;34.92
77333;BME280;66408;51.326;12.070;2023-04-24T11:47:30;99565.63;;;18.72;36.95
77333;BME280;66408;51.326;12.070;2023-04-24T11:49:59;99560.84;;;18.36;38.69
77333;BME280;66408;51.326;12.070;2023-04-24T11:52:27;99569.22;;;17.86;37.53
77333;BME280;66408;51.326;12.070;2023-04-24T11:54:54;99576.13;;;18.33;38.56
77333;BME280;66408;51.326;12.070;2023-04-24T11:57:22;99574.72;;;18.46;38.58
77333;BME280;66408;51.326;12.070;2023-04-24T11:59:49;99568.16;;;18.54;38.57
77333;BME280;66408;51.326;12.070;2023-04-24T12:02:23;99570.19;;;18.27;39.00
77333;BME280;66408;51.326;12.070;2023-04-24T12:04:54;99573.81;;;18.65;38.42
77333;BME280;66408;51.326;12.070;2023-04-24T12:07:22;99568.34;;;18.39;38.74
77333;BME280;66408;51.326;12.070;2023-04-24T12:09:59;99571.75;;;17.99;36.33
77333;BME280;66408;51.326;12.070;2023-04-24T12:12:29;99579.06;;;17.87;37.70
77333;BME280;66408;51.326;12.070;2023-04-24T12:14:57;99565.97;;;17.81;38.12
77333;BME280;66408;51.326;12.070;2023-04-24T12:17:28;99571.84;;;18.65;37.61
77333;BME280;66408;51.326;12.070;2023-04-24T12:20:06;99566.16;;;18.51;35.92
77333;BME280;66408;51.326;12.070;2023-04-24T12:23:02;99588.88;;;18.75;34.96
77333;BME280;66408;51.326;12.070;2023-04-24T12:25:31;99570.13;;;18.87;34.61
77333;BME280;66408;51.326;12.070;2023-04-24T12:30:33;99564.63;;;18.24;35.22
77333;BME280;66408;51.326;12.070;2023-04-24T12:33:02;99556.97;;;18.40;35.71
77333;BME280;66408;51.326;12.070;2023-04-24T12:35:30;99560.13;;;18.42;35.92
77333;BME280;66408;51.326;12.070;2023-04-24T12:38:08;99557.88;;;18.85;35.71
77333;BME280;66408;51.326;12.070;2023-04-24T12:40:35;99537.03;;;19.79;35.26
77333;BME280;66408;51.326;12.070;2023-04-24T12:43:02;99557.13;;;19.28;33.95
77333;BME280;66408;51.326;12.070;2023-04-24T12:45:38;99556.34;;;19.31;35.32
77333;BME280;66408;51.326;12.070;2023-04-24T12:48:05;99559.78;;;19.62;34.29
77333;BME280;66408;51.326;12.070;2023-04-24T12:50:31;99554.41;;;19.83;33.08
77333;BME280;66408;51.326;12.070;2023-04-24T12:52:59;99556.91;;;20.02;32.84
77333;BME280;66408;51.326;12.070;2023-04-24T12:55:26;99552.22;;;20.14;33.25
77333;BME280;66408;51.326;12.070;2023-04-24T12:57:52;99548.94;;;19.90;32.63
77333;BME280;66408;51.326;12.070;2023-04-24T13:00:21;99541.16;;;20.10;32.74
77333;BME280;66408;51.326;12.070;2023-04-24T13:02:48;99558.13;;;20.16;32.69